Juneau International Airport
PAJN : now visible

Airfield :











YOU CAN JOIN US ON...

 
LOGIN :

Register | Disclaimer

   EN    FR    IT 

 









Legend :    VFR   Marginal VFR   IFR   Intensive IFR   Very Intensive IFR
Visi :
Ceiling :
>= 8 km
>= 3000ft
5 to 8 km
1000 to 3000 ft
1500m to 5 km
500 to 1000 ft
800 to 1500m
200 to 500 ft
< 800m
< 200 ft
Symbols :   Thunderstorms  Fog  Heavy snow  Heavy precipitations  Wind > 20 kt






- Airport Elevation : 21 ft
- IATA code : JNU


PAJN - Juneau International

CURRENT METAR :
  • 141153Z 06008KT 10SM FEW011 BKN055 OVC100 03/01 A3002 RMK AO2 SLP167 OCNL BINOVC 70001 T00280006 10033 20022 51004

EXPIRED METARs :
  • 141053Z 07007KT 10SM FEW022 BKN055 BKN100 03/01 A3002 RMK AO2 SLP167 OCNL BINOVC T00280006
  • 140953Z 10007KT 10SM SCT042 OVC080 03/01 A3002 RMK AO2 SLP166 T00280011

TAF PAJN
Valid from the 14 at 12:00 until the 15 at 12:00 UTC


141124Z 1412/1512 08007KT P6SM VCSH FEW020 BKN050 BKN100
FM150600 00000KT 3SM BR SCT003 SCT050
FM150900 00000KT 2SM BR BKN003
FM151100 00000KT 1SM BR BKN003



MET'MAP, your aeronautical weather chart ! - Copyright ORBIFLY December 2007 - Disclaimer

ORBIFLY MET'MAP TEAM :

Programming & Development : Alexandra Zaïnal
Concept & original design : Baudouin d'Aumeries
Assistance for programming : Marc-Olivier Méhu
Technical & hardware support : Manuel Goepfert

Contact : metmap@orbifly.com




SOURCES & CREDITS :

   NOAA       Earth
Advisory